Time;durP1;ratioP1;P1;durP2;ratioP2;P2;SDS_P1;SDS_P2;PMS_P1;PMS_P2;Temp;Humidity;BMP_temperature;BMP_pressure;BME280_temperature;BME280_humidity;BME280_pressure;Samples;Min_cycle;Max_cycle;Signal;HPM_P1;HPM_P2
2021/04/15 00:01:31;;;;;;;5.63;1.53;;;4.20;99.90;;;;;;4984306;28;20215;-76
2021/04/15 00:03:57;;;;;;;7.33;1.80;;;4.20;99.90;;;;;;4984321;28;20203;-78
2021/04/15 00:06:25;;;;;;;3.27;1.53;;;4.20;99.90;;;;;;4984029;28;20207;-76
2021/04/15 00:08:53;;;;;;;13.20;2.20;;;4.10;99.90;;;;;;5000914;28;20910;-76
2021/04/15 00:11:22;;;;;;;6.87;2.10;;;4.00;99.90;;;;;;5003038;28;20461;-76
2021/04/15 00:13:50;;;;;;;4.87;1.70;;;4.00;99.90;;;;;;5002928;28;20301;-78
2021/04/15 00:16:18;;;;;;;4.60;1.70;;;4.00;99.90;;;;;;4989445;28;20610;-78
2021/04/15 00:18:44;;;;;;;6.10;2.30;;;3.90;99.90;;;;;;4985577;28;20911;-80
2021/04/15 00:21:12;;;;;;;5.03;2.83;;;3.80;99.90;;;;;;4986339;28;20612;-80
2021/04/15 00:23:38;;;;;;;3.23;1.60;;;3.80;99.90;;;;;;4985133;28;20200;-80
2021/04/15 00:26:08;;;;;;;4.90;1.60;;;3.70;99.90;;;;;;4984812;28;20223;-77
2021/04/15 00:28:34;;;;;;;4.67;1.43;;;3.70;99.90;;;;;;4984420;28;20220;-76
2021/04/15 00:31:00;;;;;;;3.20;1.50;;;3.60;99.90;;;;;;4984426;28;20227;-79
2021/04/15 00:33:27;;;;;;;5.10;1.70;;;3.60;99.90;;;;;;4983754;28;20231;-77
2021/04/15 00:35:53;;;;;;;5.67;1.63;;;3.50;99.90;;;;;;4984138;28;20208;-77
2021/04/15 00:38:22;;;;;;;2.97;1.80;;;3.50;99.90;;;;;;4984614;28;20211;-78
2021/04/15 00:40:50;;;;;;;5.97;1.73;;;3.50;99.90;;;;;;4984829;28;20203;-80
2021/04/15 00:43:19;;;;;;;3.67;1.40;;;3.40;99.90;;;;;;4984108;28;20218;-76
2021/04/15 00:45:47;;;;;;;4.93;1.93;;;3.40;99.90;;;;;;4982933;28;20212;-77
2021/04/15 00:48:29;;;;;;;7.63;1.60;;;3.40;99.90;;;;;;4983199;28;21020;-77
2021/04/15 00:50:58;;;;;;;4.77;1.77;;;3.40;99.90;;;;;;5000916;28;20916;-76
2021/04/15 00:53:29;;;;;;;5.67;1.50;;;3.40;99.90;;;;;;5001824;28;20242;-77
2021/04/15 00:55:55;;;;;;;2.80;1.30;;;3.30;99.90;;;;;;5002488;28;20501;-76
2021/04/15 00:58:24;;;;;;;6.80;2.27;;;3.30;99.90;;;;;;4986092;28;20212;-77
2021/04/15 01:00:50;;;;;;;4.13;1.63;;;3.30;99.90;;;;;;4982100;28;20215;-77
2021/04/15 01:03:16;;;;;;;5.57;1.30;;;3.30;99.90;;;;;;4983393;28;20196;-76
2021/04/15 01:05:46;;;;;;;4.80;1.43;;;3.20;99.90;;;;;;4995402;28;20239;-76
2021/04/15 01:08:13;;;;;;;3.20;1.50;;;3.20;99.90;;;;;;5002495;28;20208;-75
2021/04/15 01:10:42;;;;;;;2.50;1.20;;;3.20;99.90;;;;;;5002553;28;20204;-76
2021/04/15 01:13:24;;;;;;;3.80;1.27;;;3.20;99.90;;;;;;4994102;28;20624;-77
2021/04/15 01:16:14;;;;;;;2.13;1.10;;;3.20;99.90;;;;;;4982969;28;20223;-78
2021/04/15 01:18:48;;;;;;;4.03;1.23;;;3.30;99.90;;;;;;4981699;28;20204;-75
2021/04/15 01:21:47;;;;;;;3.87;1.50;;;3.50;99.90;;;;;;4980506;28;20206;-76
2021/04/15 01:24:18;;;;;;;6.00;1.77;;;3.70;99.90;;;;;;4930265;28;20200;-76
2021/04/15 01:27:25;;;;;;;6.53;1.70;;;3.90;99.90;;;;;;4982657;28;20199;-76
2021/04/15 01:29:59;;;;;;;4.73;1.27;;;4.00;99.90;;;;;;4982296;28;20218;-74
2021/04/15 01:32:30;;;;;;;5.27;1.50;;;4.00;99.90;;;;;;4985286;28;20226;-75
2021/04/15 01:35:04;;;;;;;3.43;1.60;;;3.90;99.90;;;;;;5000773;28;20697;-76
2021/04/15 01:37:36;;;;;;;2.43;1.23;;;3.90;99.90;;;;;;5001737;28;20242;-75
2021/04/15 01:40:12;;;;;;;3.47;1.40;;;3.90;99.90;;;;;;5002577;28;20199;-74
2021/04/15 01:42:46;;;;;;;6.70;1.40;;;3.90;99.90;;;;;;4981778;28;20283;-77
2021/04/15 01:45:14;;;;;;;2.17;1.30;;;3.80;99.90;;;;;;4981637;28;20204;-75
2021/04/15 01:47:44;;;;;;;4.73;1.80;;;3.80;99.90;;;;;;4982200;28;20204;-79
2021/04/15 01:50:17;;;;;;;2.63;1.20;;;3.80;99.90;;;;;;4981394;28;20216;-77
2021/04/15 01:52:46;;;;;;;3.67;1.50;;;3.80;99.90;;;;;;4981917;28;20231;-76
2021/04/15 01:55:19;;;;;;;4.43;1.40;;;3.70;99.90;;;;;;4981554;28;20228;-77
2021/04/15 01:57:53;;;;;;;2.47;1.37;;;3.70;99.90;;;;;;4981949;28;20208;-76
2021/04/15 02:00:24;;;;;;;3.53;1.60;;;3.70;99.90;;;;;;4982769;28;20262;-76
2021/04/15 02:02:56;;;;;;;1.77;1.07;;;3.70;99.90;;;;;;4981985;28;20296;-76
2021/04/15 02:05:26;;;;;;;3.77;1.70;;;3.60;99.90;;;;;;4982735;28;20447;-78
2021/04/15 02:07:57;;;;;;;1.70;1.10;;;3.60;99.90;;;;;;4990775;28;20200;-74
2021/04/15 02:10:24;;;;;;;3.40;1.40;;;3.60;99.90;;;;;;5002498;28;20241;-76
2021/04/15 02:12:55;;;;;;;2.13;1.30;;;3.60;99.90;;;;;;4987017;28;20215;-76
2021/04/15 02:15:27;;;;;;;3.40;1.43;;;3.60;99.90;;;;;;4984890;28;20574;-80
2021/04/15 02:17:59;;;;;;;2.13;1.10;;;3.60;99.90;;;;;;4984780;28;20278;-76
2021/04/15 02:20:27;;;;;;;2.33;1.50;;;3.60;99.90;;;;;;4986257;28;20199;-74
2021/04/15 02:23:02;;;;;;;1.20;1.00;;;3.50;99.90;;;;;;4985460;28;20204;-75
2021/04/15 02:25:35;;;;;;;1.30;1.10;;;3.50;99.90;;;;;;4985499;28;20210;-79
2021/04/15 02:28:08;;;;;;;2.03;1.20;;;3.50;99.90;;;;;;4985825;28;20270;-77
2021/04/15 02:30:41;;;;;;;3.23;1.37;;;3.50;99.90;;;;;;4984350;28;20558;-76
2021/04/15 02:33:14;;;;;;;2.67;1.30;;;3.40;99.90;;;;;;4984664;28;20204;-81
2021/04/15 02:35:44;;;;;;;1.50;1.20;;;3.40;99.90;;;;;;4986168;28;20211;-79
2021/04/15 02:38:12;;;;;;;3.50;1.80;;;3.30;99.90;;;;;;4985036;28;20296;-74
2021/04/15 02:40:42;;;;;;;2.50;1.53;;;3.30;99.90;;;;;;4984517;28;20215;-75
2021/04/15 02:43:16;;;;;;;1.47;1.10;;;3.30;99.90;;;;;;4992614;28;20203;-79
2021/04/15 02:45:48;;;;;;;2.23;1.00;;;3.20;99.90;;;;;;5004290;28;20213;-75
2021/04/15 02:48:20;;;;;;;1.47;1.10;;;3.20;99.90;;;;;;5004212;28;20227;-75
2021/04/15 02:50:47;;;;;;;1.17;1.07;;;3.20;99.90;;;;;;4990639;28;20295;-75
2021/04/15 02:53:16;;;;;;;1.57;1.47;;;3.10;99.90;;;;;;4983783;28;20235;-79
2021/04/15 02:55:50;;;;;;;1.90;1.20;;;3.10;99.90;;;;;;4985448;28;20203;-76
2021/04/15 02:58:22;;;;;;;3.53;1.40;;;3.10;99.90;;;;;;4984961;28;20199;-75
2021/04/15 03:00:51;;;;;;;2.90;1.40;;;3.00;99.90;;;;;;4985307;28;20191;-76
2021/04/15 03:03:20;;;;;;;2.63;1.30;;;3.00;99.90;;;;;;4984795;28;20211;-76
2021/04/15 03:05:50;;;;;;;3.80;2.03;;;3.00;99.90;;;;;;4983553;28;20223;-75
2021/04/15 03:08:21;;;;;;;2.50;1.07;;;2.90;99.90;;;;;;4994020;28;20207;-75
2021/04/15 03:10:52;;;;;;;2.80;1.30;;;2.90;99.90;;;;;;4985732;28;20204;-78
2021/04/15 03:13:23;;;;;;;2.63;1.10;;;2.90;99.90;;;;;;4984971;28;20480;-78
2021/04/15 03:15:53;;;;;;;2.10;1.37;;;2.80;99.90;;;;;;4985149;28;20270;-77
2021/04/15 03:18:25;;;;;;;3.73;1.57;;;2.80;99.90;;;;;;4985067;28;20200;-77
2021/04/15 03:20:57;;;;;;;3.97;1.63;;;2.80;99.90;;;;;;4984623;28;20358;-75
2021/04/15 03:23:33;;;;;;;2.60;1.13;;;2.80;99.90;;;;;;4984151;28;20596;-78
2021/04/15 03:26:06;;;;;;;3.23;1.37;;;2.70;99.90;;;;;;4984776;28;21022;-75
2021/04/15 03:28:39;;;;;;;1.57;1.00;;;2.70;99.90;;;;;;4984116;28;20196;-75
2021/04/15 03:31:12;;;;;;;2.70;1.37;;;2.70;99.90;;;;;;4983722;28;20848;-77
2021/04/15 03:33:45;;;;;;;3.17;1.67;;;2.70;99.90;;;;;;4982949;28;20227;-79
2021/04/15 03:36:17;;;;;;;2.67;1.33;;;2.60;99.90;;;;;;4984168;28;20204;-77
2021/04/15 03:38:49;;;;;;;1.87;1.00;;;2.60;99.90;;;;;;4983701;28;20215;-80
2021/04/15 03:41:19;;;;;;;4.17;1.37;;;2.60;99.90;;;;;;4983364;28;20212;-80
2021/04/15 03:43:48;;;;;;;2.57;1.43;;;2.60;99.90;;;;;;4983677;28;20235;-76
2021/04/15 03:46:24;;;;;;;2.03;1.30;;;2.60;99.90;;;;;;4982878;28;20216;-76
2021/04/15 03:48:54;;;;;;;3.57;1.37;;;2.50;99.90;;;;;;4983187;28;20195;-79
2021/04/15 03:51:24;;;;;;;3.10;1.30;;;2.50;99.90;;;;;;4993327;28;20211;-77
2021/04/15 03:53:57;;;;;;;2.17;1.23;;;2.40;99.90;;;;;;5002799;28;20416;-77
2021/04/15 03:56:29;;;;;;;2.10;1.40;;;2.40;99.90;;;;;;5002793;28;20654;-73
2021/04/15 03:59:01;;;;;;;2.83;1.30;;;2.40;99.90;;;;;;4996455;28;20237;-75
2021/04/15 04:01:32;;;;;;;2.20;1.30;;;2.30;99.90;;;;;;4984299;28;20514;-75
2021/04/15 04:04:05;;;;;;;3.20;1.40;;;2.30;99.90;;;;;;4984652;28;20604;-77
2021/04/15 04:06:36;;;;;;;2.50;1.10;;;2.30;99.90;;;;;;4984817;28;20618;-75
2021/04/15 04:09:07;;;;;;;2.13;1.20;;;2.20;99.90;;;;;;4998359;28;20224;-76
2021/04/15 04:11:36;;;;;;;3.03;1.40;;;2.20;99.90;;;;;;4990115;28;20695;-78
2021/04/15 04:14:10;;;;;;;2.50;1.33;;;2.20;99.90;;;;;;4990792;28;20219;-79
2021/04/15 04:16:41;;;;;;;1.43;1.23;;;2.20;99.90;;;;;;4989757;28;20219;-79
2021/04/15 04:19:16;;;;;;;1.37;1.27;;;2.10;99.90;;;;;;4990423;28;20319;-76
2021/04/15 04:21:48;;;;;;;2.77;1.37;;;2.10;99.90;;;;;;4986504;28;20200;-80
2021/04/15 04:24:21;;;;;;;3.60;1.40;;;2.00;99.90;;;;;;4983991;28;20192;-76
2021/04/15 04:26:54;;;;;;;1.70;1.30;;;2.00;99.90;;;;;;4984191;28;20243;-77
2021/04/15 04:29:32;;;;;;;1.37;1.20;;;2.00;99.90;;;;;;4984284;28;20204;-76
2021/04/15 04:32:03;;;;;;;2.23;1.30;;;1.90;99.90;;;;;;4983706;28;20203;-77
2021/04/15 04:34:32;;;;;;;2.47;1.37;;;1.90;99.90;;;;;;4984268;28;20208;-79
2021/04/15 04:37:00;;;;;;;1.90;1.47;;;1.90;99.90;;;;;;4983247;28;20211;-75
2021/04/15 04:39:29;;;;;;;2.50;1.10;;;1.90;99.90;;;;;;4984723;28;20876;-80
2021/04/15 04:42:04;;;;;;;1.83;1.20;;;1.80;99.90;;;;;;4984792;28;20203;-79
2021/04/15 04:44:38;;;;;;;2.03;1.27;;;1.80;99.90;;;;;;4984127;28;20210;-80
2021/04/15 04:47:12;;;;;;;3.53;1.57;;;1.80;99.90;;;;;;4984481;28;20231;-80
2021/04/15 04:49:41;;;;;;;5.47;1.33;;;1.70;99.90;;;;;;4984055;28;20207;-79
2021/04/15 04:52:11;;;;;;;2.70;1.30;;;1.70;99.90;;;;;;4983680;28;20231;-80
2021/04/15 04:54:40;;;;;;;2.70;1.50;;;1.70;99.90;;;;;;4981428;28;20319;-79
2021/04/15 04:57:13;;;;;;;4.87;1.80;;;1.70;99.90;;;;;;4983755;28;20305;-79
2021/04/15 04:59:43;;;;;;;5.10;1.87;;;1.60;99.90;;;;;;4983573;28;20935;-80
2021/04/15 05:02:13;;;;;;;3.93;1.60;;;1.60;99.90;;;;;;4984703;28;20247;-80
2021/04/15 05:04:39;;;;;;;2.67;1.43;;;1.60;99.90;;;;;;4983019;28;20543;-78
2021/04/15 05:07:08;;;;;;;3.20;1.47;;;1.60;99.90;;;;;;4985739;28;20203;-80
2021/04/15 05:09:37;;;;;;;3.00;1.73;;;1.60;99.90;;;;;;5003533;28;20234;-78
2021/04/15 05:12:07;;;;;;;4.23;1.80;;;1.60;99.90;;;;;;5001711;28;20607;-78
2021/04/15 05:14:34;;;;;;;3.20;1.93;;;1.70;99.90;;;;;;5002761;28;20227;-74
2021/04/15 05:17:04;;;;;;;4.77;2.80;;;1.70;99.90;;;;;;4999657;28;20679;-75
2021/04/15 05:19:35;;;;;;;4.37;3.00;;;1.70;99.90;;;;;;4982806;28;20291;-74
2021/04/15 05:22:04;;;;;;;5.93;3.00;;;1.70;99.90;;;;;;4983337;28;20211;-73
2021/04/15 05:24:38;;;;;;;4.37;2.30;;;1.80;99.90;;;;;;4983114;28;20207;-76
2021/04/15 05:27:06;;;;;;;5.80;2.47;;;1.80;99.90;;;;;;4982792;28;20200;-75
2021/04/15 05:29:38;;;;;;;5.00;2.30;;;1.90;99.90;;;;;;4983305;28;20211;-76
2021/04/15 05:32:05;;;;;;;5.30;2.60;;;1.90;99.90;;;;;;4982850;28;20591;-77
2021/04/15 05:34:36;;;;;;;4.67;2.90;;;2.00;99.90;;;;;;4982142;28;20749;-76
2021/04/15 05:37:06;;;;;;;8.17;4.10;;;2.10;99.90;;;;;;4981961;28;20915;-77
2021/04/15 05:39:38;;;;;;;8.17;3.00;;;2.30;99.90;;;;;;4982381;28;20212;-76
2021/04/15 05:42:09;;;;;;;9.53;2.60;;;2.50;99.90;;;;;;4982284;28;20253;-75
2021/04/15 05:44:40;;;;;;;6.10;4.23;;;2.60;99.90;;;;;;4983937;28;20242;-78
2021/04/15 05:47:15;;;;;;;9.23;3.50;;;2.80;99.90;;;;;;4986354;28;20192;-77
2021/04/15 05:49:47;;;;;;;7.03;3.40;;;2.90;99.90;;;;;;4986228;28;20207;-79
2021/04/15 05:52:26;;;;;;;6.47;2.90;;;3.00;99.90;;;;;;4985961;28;20242;-78
2021/04/15 05:54:57;;;;;;;8.77;3.63;;;3.20;99.90;;;;;;4984640;28;20228;-77
2021/04/15 05:57:28;;;;;;;10.23;3.97;;;3.30;99.90;;;;;;4989142;28;20306;-79
2021/04/15 06:00:06;;;;;;;8.23;3.87;;;3.50;99.90;;;;;;4988360;28;20280;-76
2021/04/15 06:02:53;;;;;;;6.03;3.47;;;3.70;99.90;;;;;;4988737;28;20204;-81
2021/04/15 06:05:26;;;;;;;8.47;4.00;;;3.90;99.90;;;;;;4985002;28;20200;-77
2021/04/15 06:07:55;;;;;;;8.87;3.27;;;4.10;99.90;;;;;;4993441;28;20208;-77
2021/04/15 06:10:24;;;;;;;8.10;3.83;;;4.20;99.90;;;;;;4992787;28;20235;-77
2021/04/15 06:12:58;;;;;;;9.60;3.43;;;4.30;99.90;;;;;;4985573;28;20626;-76
2021/04/15 06:15:28;;;;;;;5.07;3.30;;;4.40;99.90;;;;;;4984685;28;20236;-76
2021/04/15 06:18:00;;;;;;;6.47;3.23;;;4.40;99.90;;;;;;4984824;28;20231;-76
2021/04/15 06:20:31;;;;;;;4.80;2.87;;;4.50;99.90;;;;;;4985339;28;20239;-75
2021/04/15 06:23:02;;;;;;;6.50;3.00;;;4.50;99.90;;;;;;4984377;28;20272;-76
2021/04/15 06:25:32;;;;;;;8.87;3.10;;;4.60;99.90;;;;;;4985008;28;20200;-77
2021/04/15 06:28:05;;;;;;;6.07;3.27;;;4.60;99.90;;;;;;4984599;28;20442;-77
2021/04/15 06:30:36;;;;;;;8.37;4.10;;;4.70;99.90;;;;;;4984527;28;20207;-76
2021/04/15 06:33:08;;;;;;;11.23;3.80;;;4.80;99.90;;;;;;4984287;28;20299;-77
2021/04/15 06:35:36;;;;;;;6.00;3.70;;;4.80;99.90;;;;;;4984279;28;20608;-76
2021/04/15 06:38:09;;;;;;;4.47;2.73;;;4.90;99.90;;;;;;4984370;28;20218;-77
2021/04/15 06:41:10;;;;;;;4.53;2.83;;;5.00;99.90;;;;;;4984682;28;20201;-77
2021/04/15 06:43:59;;;;;;;7.70;2.70;;;5.00;99.90;;;;;;4984610;28;20204;-78
2021/04/15 06:50:00;;;;;;;6.33;2.57;;;5.10;99.90;;;;;;5000844;28;20301;-77
2021/04/15 06:52:35;;;;;;;7.57;4.10;;;5.20;99.90;;;;;;5003849;28;20230;-78
2021/04/15 06:55:18;;;;;;;4.77;2.70;;;5.30;99.90;;;;;;4984471;28;20605;-77
2021/04/15 06:58:10;;;;;;;5.47;2.50;;;5.30;99.90;;;;;;4984409;28;20212;-78
2021/04/15 07:01:00;;;;;;;3.93;2.27;;;5.40;99.90;;;;;;4984396;28;20604;-82
2021/04/15 07:03:57;;;;;;;4.30;2.10;;;5.40;99.90;;;;;;4973112;28;20524;-81
2021/04/15 07:06:46;;;;;;;4.67;2.67;;;5.50;99.90;;;;;;4982701;28;20223;-78
2021/04/15 07:09:39;;;;;;;5.43;2.37;;;5.60;99.90;;;;;;4994262;28;20235;-78
2021/04/15 07:12:21;;;;;;;7.23;2.47;;;5.70;99.90;;;;;;4984666;28;20646;-75
2021/04/15 07:15:01;;;;;;;5.03;2.77;;;5.80;99.90;;;;;;4992341;28;20215;-75
2021/04/15 07:17:50;;;;;;;4.67;2.93;;;5.90;99.90;;;;;;5004794;28;20203;-76
2021/04/15 07:20:37;;;;;;;8.33;2.87;;;6.10;99.90;;;;;;5004825;28;20234;-75
2021/04/15 07:23:40;;;;;;;5.87;2.30;;;6.40;99.90;;;;;;4994004;28;20279;-77
2021/04/15 07:26:30;;;;;;;4.97;2.47;;;6.60;99.90;;;;;;4983792;28;20617;-75
2021/04/15 07:29:12;;;;;;;4.27;2.60;;;6.80;99.90;;;;;;4984635;28;20546;-76
2021/04/15 07:32:08;;;;;;;3.90;2.30;;;7.00;99.90;;;;;;4983723;28;20211;-75
2021/04/15 07:35:21;;;;;;;2.93;1.73;;;7.20;99.90;;;;;;4950543;28;20742;-75
2021/04/15 07:38:30;;;;;;;5.77;2.67;;;7.50;99.90;;;;;;4963324;28;20215;-76
2021/04/15 07:41:27;;;;;;;5.63;1.73;;;7.60;99.90;;;;;;4983361;28;20216;-75
2021/04/15 07:44:29;;;;;;;3.63;2.13;;;7.70;99.90;;;;;;4984804;28;20236;-78
2021/04/15 07:47:26;;;;;;;5.63;2.20;;;7.80;99.90;;;;;;4979560;28;20203;-76
2021/04/15 07:50:15;;;;;;;4.60;2.27;;;7.90;99.90;;;;;;4983515;28;20682;-79
2021/04/15 07:53:29;;;;;;;7.63;2.73;;;7.90;99.90;;;;;;4970889;28;20302;-79
2021/04/15 07:56:33;;;;;;;4.77;2.13;;;7.80;99.90;;;;;;4999354;28;20230;-78
2021/04/15 07:59:28;;;;;;;4.50;2.70;;;7.90;99.90;;;;;;5002203;28;20226;-78
2021/04/15 08:02:27;;;;;;;7.73;2.20;;;8.00;99.90;;;;;;4984190;28;20246;-76
2021/04/15 08:05:29;;;;;;;3.83;1.73;;;7.70;99.90;;;;;;4983368;28;20197;-78
2021/04/15 08:08:17;;;;;;;6.17;2.23;;;7.80;99.90;;;;;;4988216;28;20203;-79
2021/04/15 08:11:02;;;;;;;5.23;2.23;;;8.10;99.90;;;;;;4979930;28;20222;-78
2021/04/15 08:14:02;;;;;;;3.60;2.00;;;8.40;99.90;;;;;;4982665;28;20192;-79
2021/04/15 08:16:55;;;;;;;5.13;2.40;;;8.70;99.90;;;;;;4981521;28;20643;-79
2021/04/15 08:19:55;;;;;;;3.10;2.40;;;8.90;99.90;;;;;;4981829;28;20528;-77
2021/04/15 08:22:34;;;;;;;5.13;1.90;;;8.80;99.90;;;;;;4956706;28;20770;-79
2021/04/15 08:25:13;;;;;;;5.27;2.23;;;8.90;99.90;;;;;;4982605;28;20203;-79
2021/04/15 08:28:07;;;;;;;6.10;2.00;;;9.20;99.90;;;;;;4982886;28;20295;-78
2021/04/15 08:31:03;;;;;;;3.33;1.93;;;9.00;99.90;;;;;;4969633;28;20694;-78
2021/04/15 08:33:48;;;;;;;4.20;1.90;;;9.20;99.90;;;;;;4982668;28;20282;-79
2021/04/15 08:36:41;;;;;;;5.33;1.40;;;9.30;99.90;;;;;;4982199;28;20655;-78
2021/04/15 08:39:27;;;;;;;4.00;2.60;;;9.60;99.90;;;;;;4947874;28;20531;-77
2021/04/15 08:42:03;;;;;;;8.87;2.13;;;9.90;99.90;;;;;;4982376;28;20215;-78
2021/04/15 08:44:42;;;;;;;4.90;1.80;;;10.10;99.90;;;;;;4981734;28;20199;-79
2021/04/15 08:47:29;;;;;;;3.70;1.40;;;10.10;99.90;;;;;;4983571;28;20235;-78
2021/04/15 08:50:08;;;;;;;2.83;1.70;;;9.90;99.90;;;;;;4988865;28;20206;-79
2021/04/15 08:52:40;;;;;;;4.30;1.60;;;9.50;99.90;;;;;;5004362;28;20852;-79
2021/04/15 08:55:18;;;;;;;3.50;1.63;;;9.30;99.90;;;;;;4998330;28;20231;-79
2021/04/15 08:57:59;;;;;;;3.60;1.50;;;9.00;99.90;;;;;;4997668;28;20237;-80
2021/04/15 09:00:33;;;;;;;2.50;1.50;;;8.80;99.90;;;;;;5004380;28;20203;-77
2021/04/15 09:03:17;;;;;;;6.03;1.47;;;8.60;99.90;;;;;;4983079;28;20196;-78
2021/04/15 09:06:17;;;;;;;5.67;2.17;;;8.40;99.90;;;;;;4985906;28;20198;-78
2021/04/15 09:09:22;;;;;;;3.73;1.80;;;8.30;99.90;;;;;;4999242;28;20257;-77
2021/04/15 09:12:17;;;;;;;5.10;1.50;;;8.20;99.90;;;;;;4922586;29;20994;-78
2021/04/15 09:15:02;;;;;;;3.47;1.60;;;8.10;99.90;;;;;;4979324;28;20243;-77
2021/04/15 09:17:33;;;;;;;3.33;1.90;;;8.10;99.90;;;;;;4982125;28;20219;-78
2021/04/15 09:20:07;;;;;;;4.10;1.83;;;8.10;99.90;;;;;;4984231;28;20275;-77
2021/04/15 09:23:03;;;;;;;4.93;2.23;;;8.10;99.90;;;;;;4986728;28;20701;-77
2021/04/15 09:25:44;;;;;;;4.80;2.23;;;8.10;99.90;;;;;;4993468;28;20203;-77
2021/04/15 09:28:14;;;;;;;5.70;2.17;;;8.10;99.90;;;;;;5005741;28;20207;-76
2021/04/15 09:30:55;;;;;;;3.33;1.67;;;7.90;99.90;;;;;;5004204;28;20507;-78
2021/04/15 09:33:39;;;;;;;5.10;2.03;;;7.80;99.90;;;;;;4985455;28;20239;-76
2021/04/15 09:36:13;;;;;;;5.57;1.97;;;7.70;99.90;;;;;;4985750;28;20212;-76
2021/04/15 09:39:18;;;;;;;2.83;2.20;;;7.70;99.90;;;;;;4986179;28;20227;-77
2021/04/15 09:42:11;;;;;;;5.27;2.00;;;7.80;99.90;;;;;;5002018;28;20211;-77
2021/04/15 09:44:48;;;;;;;8.37;2.27;;;7.80;99.90;;;;;;5004842;28;20211;-77
2021/04/15 09:47:27;;;;;;;4.90;2.20;;;7.90;99.90;;;;;;5005201;28;20210;-77
2021/04/15 09:50:06;;;;;;;8.73;3.50;;;7.80;99.90;;;;;;4999423;28;20261;-77
2021/04/15 09:52:55;;;;;;;6.17;2.77;;;7.80;99.90;;;;;;4985388;28;20235;-76
2021/04/15 09:55:30;;;;;;;8.37;3.10;;;7.80;99.90;;;;;;4985506;28;20227;-76
2021/04/15 09:58:11;;;;;;;5.27;2.53;;;7.80;99.90;;;;;;4985712;28;20265;-77
2021/04/15 10:00:42;;;;;;;6.47;2.20;;;7.90;99.90;;;;;;4984381;28;20199;-77
2021/04/15 10:03:16;;;;;;;6.00;2.50;;;7.90;99.90;;;;;;4985397;28;20200;-77
2021/04/15 10:06:02;;;;;;;6.93;2.57;;;7.90;99.90;;;;;;4985654;28;20201;-77
2021/04/15 10:08:37;;;;;;;3.87;2.07;;;8.00;99.90;;;;;;4984680;28;20245;-77
2021/04/15 10:11:16;;;;;;;5.17;2.40;;;8.00;99.90;;;;;;4986166;28;20258;-78
2021/04/15 10:14:09;;;;;;;4.13;2.30;;;7.90;99.90;;;;;;4985434;28;20206;-76
2021/04/15 10:16:45;;;;;;;4.47;2.07;;;7.80;99.90;;;;;;5003137;28;20218;-77
2021/04/15 10:19:53;;;;;;;5.73;2.30;;;7.80;99.90;;;;;;5000118;28;20456;-76
2021/04/15 10:22:32;;;;;;;3.80;1.73;;;8.00;99.90;;;;;;4925547;29;20245;-77
2021/04/15 10:25:05;;;;;;;3.97;2.47;;;8.40;99.90;;;;;;4980347;28;20273;-79
2021/04/15 10:28:07;;;;;;;4.80;2.10;;;8.50;99.90;;;;;;4984536;28;20204;-78
2021/04/15 10:30:44;;;;;;;4.97;2.33;;;8.50;99.90;;;;;;4982273;28;20254;-78
2021/04/15 10:33:52;;;;;;;4.33;2.20;;;8.40;99.90;;;;;;4984743;28;20196;-79
2021/04/15 10:36:54;;;;;;;5.37;2.57;;;8.40;99.90;;;;;;4968483;28;20585;-78
2021/04/15 10:40:17;;;;;;;7.77;2.60;;;8.40;99.90;;;;;;4984613;28;20211;-79
2021/04/15 10:43:27;;;;;;;8.87;3.33;;;8.50;99.90;;;;;;4984161;28;20211;-78
2021/04/15 10:46:17;;;;;;;10.07;2.90;;;8.50;99.90;;;;;;4985766;28;20188;-79
2021/04/15 10:48:51;;;;;;;8.40;2.60;;;8.40;99.90;;;;;;4986130;28;20244;-79
2021/04/15 10:51:29;;;;;;;5.63;3.27;;;8.30;99.90;;;;;;4985135;28;20196;-78
2021/04/15 10:53:58;;;;;;;5.63;2.20;;;8.30;99.90;;;;;;4983948;28;20271;-79
2021/04/15 10:56:52;;;;;;;5.37;2.60;;;8.50;99.90;;;;;;4983576;28;20908;-79
2021/04/15 10:59:40;;;;;;;5.53;2.70;;;8.70;99.90;;;;;;4948960;28;20204;-79
2021/04/15 11:02:22;;;;;;;7.00;2.43;;;8.80;99.90;;;;;;4984018;28;20239;-79
2021/04/15 11:04:49;;;;;;;8.83;2.70;;;8.80;99.90;;;;;;4984436;28;20216;-82
2021/04/15 11:07:18;;;;;;;4.00;2.77;;;8.70;99.90;;;;;;4987120;28;20611;-78
2021/04/15 11:09:46;;;;;;;7.83;2.83;;;8.70;99.90;;;;;;5001489;28;20246;-78
2021/04/15 11:12:22;;;;;;;5.23;2.87;;;8.70;99.90;;;;;;5003499;28;20587;-81
2021/04/15 11:15:00;;;;;;;3.47;2.47;;;8.60;99.90;;;;;;4991306;28;20293;-81
2021/04/15 11:17:31;;;;;;;9.80;3.07;;;8.70;99.90;;;;;;4983811;28;20243;-80
2021/04/15 11:20:13;;;;;;;12.20;2.57;;;8.80;99.90;;;;;;4984274;28;20311;-79
2021/04/15 11:22:44;;;;;;;7.47;3.17;;;9.00;99.90;;;;;;4984520;28;20662;-78
2021/04/15 11:25:13;;;;;;;3.63;2.67;;;9.30;99.90;;;;;;4984036;28;20398;-81
2021/04/15 11:27:40;;;;;;;5.40;2.40;;;9.40;99.90;;;;;;4984058;28;20223;-82
2021/04/15 11:30:08;;;;;;;6.57;2.50;;;9.50;99.90;;;;;;4983490;28;20291;-80
2021/04/15 11:32:42;;;;;;;8.97;2.70;;;9.50;99.90;;;;;;4983159;28;20295;-80
2021/04/15 11:35:11;;;;;;;8.10;2.57;;;9.40;99.90;;;;;;4983838;28;20223;-81
2021/04/15 11:37:39;;;;;;;7.30;2.53;;;9.30;99.90;;;;;;4983294;28;20212;-80
2021/04/15 11:40:32;;;;;;;6.03;2.57;;;9.20;99.90;;;;;;4983323;28;20223;-78
2021/04/15 11:43:01;;;;;;;5.00;2.20;;;9.20;99.90;;;;;;4969195;28;20211;-81
2021/04/15 11:45:32;;;;;;;5.57;2.20;;;9.00;99.90;;;;;;4982688;28;20207;-79
2021/04/15 11:48:17;;;;;;;4.50;2.83;;;9.00;99.90;;;;;;4983324;28;20212;-79
2021/04/15 11:50:45;;;;;;;4.93;2.80;;;9.00;99.90;;;;;;4983273;28;20251;-80
2021/04/15 11:53:40;;;;;;;5.90;2.50;;;9.10;99.90;;;;;;4982850;28;20243;-81
2021/04/15 11:56:32;;;;;;;7.57;2.80;;;9.00;99.90;;;;;;4981921;28;20239;-79
2021/04/15 11:59:18;;;;;;;6.83;2.60;;;9.00;99.90;;;;;;4982617;28;20204;-79
2021/04/15 12:01:44;;;;;;;4.77;2.50;;;9.00;99.90;;;;;;4981462;28;20207;-81
2021/04/15 12:04:16;;;;;;;7.13;2.67;;;9.10;99.90;;;;;;4982048;28;20298;-79
2021/04/15 12:06:49;;;;;;;6.07;2.90;;;9.10;99.90;;;;;;4981681;28;20292;-80
2021/04/15 12:09:20;;;;;;;5.97;2.87;;;9.10;99.90;;;;;;4982611;28;20306;-78
2021/04/15 12:11:57;;;;;;;6.57;2.77;;;9.10;99.90;;;;;;4982453;28;20207;-78
2021/04/15 12:14:25;;;;;;;6.83;2.50;;;9.20;99.90;;;;;;4982002;28;20689;-79
2021/04/15 12:17:11;;;;;;;3.47;2.40;;;9.50;99.90;;;;;;4981385;28;20318;-79
2021/04/15 12:19:50;;;;;;;4.93;2.93;;;9.50;99.90;;;;;;4982649;28;20588;-79
2021/04/15 12:22:21;;;;;;;8.50;3.37;;;9.60;99.90;;;;;;4982252;28;20580;-80
2021/04/15 12:24:50;;;;;;;7.30;2.83;;;9.70;99.90;;;;;;4981622;28;20625;-79
2021/04/15 12:27:20;;;;;;;6.80;2.73;;;10.00;99.90;;;;;;4982883;28;20203;-80
2021/04/15 12:29:54;;;;;;;4.50;2.50;;;10.20;99.90;;;;;;4985928;28;20223;-80
2021/04/15 12:32:32;;;;;;;8.40;2.63;;;10.10;99.90;;;;;;4998650;28;20316;-80
2021/04/15 12:35:11;;;;;;;5.60;2.40;;;10.00;99.90;;;;;;5001627;28;20281;-79
2021/04/15 12:37:41;;;;;;;7.13;2.30;;;9.90;99.90;;;;;;5002314;28;20215;-80
2021/04/15 12:40:31;;;;;;;8.00;3.23;;;9.80;99.90;;;;;;4996395;28;20208;-79
2021/04/15 12:43:01;;;;;;;7.00;3.00;;;9.90;99.90;;;;;;4980661;28;20303;-80
2021/04/15 12:45:33;;;;;;;5.93;2.77;;;9.90;99.90;;;;;;4982236;28;20580;-80
2021/04/15 12:48:02;;;;;;;6.50;2.50;;;10.00;99.90;;;;;;4982359;28;20211;-78
2021/04/15 12:50:31;;;;;;;5.87;2.63;;;10.00;99.90;;;;;;4982332;28;20277;-78
2021/04/15 12:52:59;;;;;;;6.53;2.90;;;10.00;99.90;;;;;;4982752;28;20239;-80
2021/04/15 12:55:27;;;;;;;6.63;3.27;;;10.00;99.90;;;;;;4987036;28;20322;-82
2021/04/15 12:57:55;;;;;;;4.47;2.53;;;10.00;99.90;;;;;;4989511;28;20802;-85
2021/04/15 13:00:34;;;;;;;6.50;2.50;;;10.20;99.90;;;;;;4989969;28;20214;-84
2021/04/15 13:03:12;;;;;;;6.33;2.40;;;10.10;99.90;;;;;;4990166;28;20234;-80
2021/04/15 13:06:09;;;;;;;5.23;2.13;;;10.30;99.90;;;;;;5005947;28;20215;-82
2021/04/15 13:08:46;;;;;;;5.87;2.57;;;10.50;99.90;;;;;;5010846;28;20265;-85
2021/04/15 13:11:35;;;;;;;6.97;2.83;;;10.90;99.90;;;;;;5006968;28;20215;-84
2021/04/15 13:14:03;;;;;;;7.23;2.80;;;11.20;99.90;;;;;;4982484;28;20218;-85
2021/04/15 13:16:47;;;;;;;4.83;2.47;;;11.40;99.90;;;;;;4987648;28;20243;-88
2021/04/15 13:19:36;;;;;;;5.87;2.60;;;11.50;99.90;;;;;;4989286;28;20222;-85
2021/04/15 13:22:11;;;;;;;5.47;2.40;;;11.40;99.90;;;;;;4996876;28;20212;-83
2021/04/15 13:25:18;;;;;;;4.90;2.40;;;11.30;99.90;;;;;;5006330;28;20192;-88
2021/04/15 13:28:07;;;;;;;4.83;2.50;;;11.20;99.90;;;;;;4992919;28;20238;-82
2021/04/15 13:30:50;;;;;;;5.40;4.90;;;10.90;99.90;;;;;;4999931;28;20313;-85
2021/04/15 13:33:19;;;;;;;3.63;2.30;;;10.90;99.90;;;;;;5012313;28;20206;-86
2021/04/15 13:35:47;;;;;;;4.40;2.30;;;10.80;99.90;;;;;;4990323;28;20644;-85
2021/04/15 13:38:39;;;;;;;2.23;1.60;;;10.90;99.90;;;;;;4986827;28;20597;-87
2021/04/15 13:41:07;;;;;;;4.50;2.20;;;10.90;99.90;;;;;;4987357;28;20204;-84
2021/04/15 13:43:47;;;;;;;5.07;2.27;;;10.90;99.90;;;;;;4985898;28;20577;-84
2021/04/15 13:46:37;;;;;;;7.20;2.50;;;10.90;99.90;;;;;;4985522;28;20965;-82
2021/04/15 13:49:38;;;;;;;5.70;2.50;;;10.70;99.90;;;;;;4984647;28;20207;-84
2021/04/15 13:52:27;;;;;;;2.70;2.07;;;10.80;99.90;;;;;;4985195;28;20200;-82